East Rockland Key, Florida
Current Conditions -  °F | °C
As of 1:53 PM on Monday 20 Oct 2014 (Local Time) from KNQX Reporting Station
Scattered Clouds Scattered Clouds  
Wind Chill: 86°   Ceiling: Unl
Heat Index: 93°   Visibility: 10mi
Dew Point: 73°   Wind: 10mph
Humidity: 65%   Direction: 170°S
Pressure: 29.94"   Gusts: NA
Location:  24.5796°N, 81.6849°W
Report Text: KNQX 201753Z 17009KT 10SM SCT025 SCT250 30/23 A2994 RMK AO2 SLP138 TCU DSNT SE T2 SET 60000 T03000228 10311 20261 58021 $
Loading
Personal Weather Stations






























Interactive Weather Map
Tropical Storm Tracking
New forecast layout! Learn more

10-Day Weather Forecast

Advertisements
Track Severe Weather on mobile